Time;durP1;ratioP1;P1;durP2;ratioP2;P2;SDS_P1;SDS_P2;PMS_P1;PMS_P2;Temp;Humidity;BMP_temperature;BMP_pressure;BME280_temperature;BME280_humidity;BME280_pressure;Samples;Min_cycle;Max_cycle;Signal;HPM_P1;HPM_P2
2021/12/26 00:00:53;;;;;;;0.40;0.40;;;;;;;7.39;100.00;98773.13;5024944;28;20025;-82
2021/12/26 00:03:20;;;;;;;0.50;0.50;;;;;;;7.32;100.00;98775.78;4995441;28;20041;-83
2021/12/26 00:05:46;;;;;;;0.40;0.40;;;;;;;7.30;100.00;98774.34;4993917;28;20120;-83
2021/12/26 00:08:11;;;;;;;0.50;0.50;;;;;;;7.35;100.00;98777.22;5026134;28;20112;-82
2021/12/26 00:10:37;;;;;;;0.40;0.40;;;;;;;7.19;100.00;98767.75;5028166;28;20398;-83
2021/12/26 00:13:03;;;;;;;0.50;0.50;;;;;;;7.13;100.00;98769.38;5026242;28;20031;-84
2021/12/26 00:15:28;;;;;;;0.40;0.40;;;;;;;7.18;100.00;98788.31;5009640;28;20527;-83
2021/12/26 00:17:54;;;;;;;0.50;0.50;;;;;;;7.13;100.00;98774.72;5026856;28;20524;-84
2021/12/26 00:20:20;;;;;;;0.40;0.40;;;;;;;7.12;100.00;98781.09;5010034;28;20795;-83
2021/12/26 00:22:47;;;;;;;0.43;0.43;;;;;;;7.11;100.00;98792.78;5008955;28;20033;-83
2021/12/26 00:25:13;;;;;;;0.40;0.40;;;;;;;7.02;100.00;98778.81;4994890;28;20057;-82
2021/12/26 00:27:40;;;;;;;0.40;0.40;;;;;;;6.98;100.00;98785.56;4996038;28;20084;-83
2021/12/26 00:30:11;;;;;;;0.47;0.47;;;;;;;6.90;100.00;98776.91;5004705;28;20041;-82
2021/12/26 00:32:36;;;;;;;0.65;0.65;;;;;;;6.93;100.00;98780.03;5010003;28;20048;-83
2021/12/26 00:35:03;;;;;;;0.50;0.50;;;;;;;6.94;100.00;98772.81;5009621;28;20124;-83
2021/12/26 00:37:29;;;;;;;0.55;0.55;;;;;;;7.10;100.00;98780.47;5010052;28;20041;-83
2021/12/26 00:39:55;;;;;;;0.40;0.40;;;;;;;7.19;100.00;98778.44;4994365;28;20107;-83
2021/12/26 00:42:21;;;;;;;0.40;0.40;;;;;;;7.29;100.00;98773.53;5006194;28;20360;-83
2021/12/26 00:44:46;;;;;;;0.50;0.50;;;;;;;7.33;100.00;98776.59;5021452;28;20128;-83
2021/12/26 00:47:12;;;;;;;2.55;2.38;;;;;;;7.33;100.00;98777.44;5016111;28;20025;-83
2021/12/26 00:49:39;;;;;;;0.40;0.40;;;;;;;7.20;100.00;98775.56;5006617;28;20548;-83
2021/12/26 00:52:06;;;;;;;0.40;0.40;;;;;;;7.13;100.00;98779.25;4991299;28;20042;-83
2021/12/26 00:54:32;;;;;;;0.50;0.50;;;;;;;6.97;100.00;98780.44;5018691;28;20033;-83
2021/12/26 00:56:58;;;;;;;1.02;0.77;;;;;;;6.81;100.00;98781.63;5027761;28;20166;-83
2021/12/26 00:59:25;;;;;;;0.50;0.50;;;;;;;6.75;100.00;98787.75;5019375;28;20470;-83
2021/12/26 01:01:51;;;;;;;5.47;1.45;;;;;;;6.69;100.00;98781.34;4993672;28;20029;-83
2021/12/26 01:04:17;;;;;;;0.40;0.40;;;;;;;6.71;100.00;98786.50;5010905;28;20034;-83
2021/12/26 01:06:43;;;;;;;0.40;0.40;;;;;;;6.82;100.00;98780.59;5027836;28;20029;-83
2021/12/26 01:09:12;;;;;;;0.40;0.40;;;;;;;6.94;100.00;98780.84;5026323;28;20072;-83
2021/12/26 01:11:41;;;;;;;0.40;0.40;;;;;;;7.03;100.00;98780.44;5025807;28;20037;-83
2021/12/26 01:14:11;;;;;;;0.40;0.40;;;;;;;7.00;100.00;98775.50;5008742;28;20475;-83
2021/12/26 01:16:38;;;;;;;2.20;2.10;;;;;;;7.18;100.00;98787.47;5024228;28;20391;-83
2021/12/26 01:19:13;;;;;;;2.92;1.80;;;;;;;7.20;100.00;98788.13;5025239;28;20086;-83
2021/12/26 01:21:41;;;;;;;0.40;0.40;;;;;;;7.21;100.00;98781.72;5008769;28;20040;-84
2021/12/26 01:24:10;;;;;;;0.60;0.60;;;;;;;7.14;100.00;98779.03;5013575;28;20120;-82
2021/12/26 01:26:36;;;;;;;0.50;0.50;;;;;;;7.08;100.00;98784.38;4995736;28;20072;-83
2021/12/26 01:29:03;;;;;;;0.73;0.73;;;;;;;7.10;100.00;98790.34;5025739;28;20060;-83
2021/12/26 01:31:29;;;;;;;0.40;0.40;;;;;;;7.16;100.00;98792.19;5010673;28;20041;-82
2021/12/26 01:33:58;;;;;;;0.50;0.50;;;;;;;7.27;100.00;98795.09;5026211;28;20095;-85
2021/12/26 01:36:24;;;;;;;0.40;0.40;;;;;;;7.33;100.00;98790.81;5046670;28;20029;-82
2021/12/26 01:38:50;;;;;;;0.50;0.50;;;;;;;7.45;100.00;98797.19;4995506;28;20048;-83
2021/12/26 01:41:17;;;;;;;0.40;0.40;;;;;;;7.53;100.00;98795.34;5013625;28;20030;-82
2021/12/26 01:43:46;;;;;;;0.40;0.40;;;;;;;7.51;100.00;98798.22;5013123;28;20049;-82
2021/12/26 01:46:14;;;;;;;0.47;0.47;;;;;;;7.56;100.00;98811.00;4996194;28;20041;-82
2021/12/26 01:48:39;;;;;;;0.50;0.50;;;;;;;7.54;100.00;98813.88;5021869;28;20048;-82
2021/12/26 01:51:05;;;;;;;0.50;0.50;;;;;;;7.58;100.00;98816.97;5021814;28;20273;-83
2021/12/26 01:53:39;;;;;;;0.40;0.40;;;;;;;7.60;100.00;98814.91;5013995;28;20458;-83
2021/12/26 01:56:09;;;;;;;0.43;0.43;;;;;;;7.63;100.00;98817.19;5015933;28;20076;-83
2021/12/26 01:58:36;;;;;;;0.50;0.50;;;;;;;7.63;100.00;98819.84;5026976;28;20048;-83
2021/12/26 02:01:11;;;;;;;0.50;0.50;;;;;;;7.64;100.00;98808.13;5034898;28;20067;-83
2021/12/26 02:03:38;;;;;;;0.75;0.75;;;;;;;7.63;100.00;98811.81;5011611;28;20052;-82
2021/12/26 02:06:04;;;;;;;0.57;0.57;;;;;;;7.68;100.00;98814.72;5011571;28;20053;-83
2021/12/26 02:08:30;;;;;;;0.50;0.50;;;;;;;7.70;100.00;98823.38;4998998;28;20040;-83
2021/12/26 02:11:00;;;;;;;0.50;0.50;;;;;;;7.75;100.00;98825.41;5030854;28;20029;-83
2021/12/26 02:13:26;;;;;;;0.45;0.45;;;;;;;7.70;100.00;98820.69;5029198;28;20025;-82
2021/12/26 02:15:52;;;;;;;0.65;0.65;;;;;;;7.70;100.00;98820.69;5011818;28;20040;-82
2021/12/26 02:18:19;;;;;;;0.40;0.40;;;;;;;7.72;100.00;98824.78;5011665;28;20029;-82
2021/12/26 02:23:24;;;;;;;0.50;0.50;;;;;;;7.74;100.00;98840.63;5028573;28;20030;-83
2021/12/26 02:28:34;;;;;;;0.40;0.40;;;;;;;7.70;100.00;98837.56;5028792;28;20040;-83
2021/12/26 02:31:00;;;;;;;0.50;0.50;;;;;;;7.75;100.00;98838.78;4998229;28;20029;-82
2021/12/26 02:33:26;;;;;;;0.40;0.40;;;;;;;7.71;100.00;98835.69;4996810;28;20590;-82
2021/12/26 02:35:53;;;;;;;0.50;0.50;;;;;;;7.65;100.00;98833.84;5029887;28;20025;-82
2021/12/26 02:38:19;;;;;;;0.40;0.40;;;;;;;7.68;100.00;98847.63;5025749;28;20042;-83
2021/12/26 02:40:47;;;;;;;0.50;0.50;;;;;;;7.63;100.00;98828.69;5030422;28;20140;-83
2021/12/26 02:43:15;;;;;;;0.50;0.50;;;;;;;7.69;100.00;98843.09;5018872;28;20037;-83
2021/12/26 02:45:42;;;;;;;0.60;0.60;;;;;;;7.65;100.00;98845.38;5024793;28;20479;-83
2021/12/26 02:48:09;;;;;;;0.47;0.47;;;;;;;7.64;100.00;98853.59;5007865;28;20037;-83
2021/12/26 02:50:35;;;;;;;0.50;0.50;;;;;;;7.62;100.00;98853.81;5018733;28;20021;-83
2021/12/26 02:53:03;;;;;;;0.40;0.40;;;;;;;7.60;100.00;98853.19;4991444;28;20044;-82
2021/12/26 02:55:29;;;;;;;1.02;1.02;;;;;;;7.53;100.00;98854.19;5003412;28;20505;-83
2021/12/26 02:58:01;;;;;;;0.50;0.50;;;;;;;7.51;100.00;98851.69;5029044;28;20036;-82
2021/12/26 03:00:29;;;;;;;0.55;0.55;;;;;;;7.59;100.00;98867.56;5026426;28;20026;-82
2021/12/26 03:02:57;;;;;;;0.70;0.70;;;;;;;7.61;100.00;98870.03;4996717;28;20060;-82
2021/12/26 03:05:34;;;;;;;0.50;0.50;;;;;;;7.59;100.00;98870.22;5004543;28;20532;-82
2021/12/26 03:08:00;;;;;;;0.40;0.40;;;;;;;7.55;100.00;98862.84;5008303;28;20034;-82
2021/12/26 03:10:27;;;;;;;0.75;0.75;;;;;;;7.56;100.00;98875.19;5024497;28;20155;-82
2021/12/26 03:12:58;;;;;;;0.40;0.40;;;;;;;7.51;100.00;98858.91;5012034;28;20041;-83
2021/12/26 03:15:26;;;;;;;0.40;0.40;;;;;;;7.61;100.00;98873.53;5013860;28;20109;-82
2021/12/26 03:17:52;;;;;;;0.50;0.50;;;;;;;7.58;100.00;98875.81;4994266;28;20029;-82
2021/12/26 03:20:21;;;;;;;0.52;0.52;;;;;;;7.58;100.00;98865.91;5025608;28;20023;-82
2021/12/26 03:22:46;;;;;;;0.45;0.45;;;;;;;7.60;100.00;98868.41;5008326;28;20080;-82
2021/12/26 03:25:18;;;;;;;0.50;0.50;;;;;;;7.59;100.00;98869.41;5026159;28;20037;-83
2021/12/26 03:27:44;;;;;;;0.40;0.40;;;;;;;7.55;100.00;98857.50;4994943;28;20025;-82
2021/12/26 03:30:12;;;;;;;0.50;0.50;;;;;;;7.60;100.00;98861.19;4994051;28;20041;-82
2021/12/26 03:32:38;;;;;;;0.50;0.50;;;;;;;7.59;100.00;98861.38;4995755;28;20463;-82
2021/12/26 03:35:05;;;;;;;0.40;0.40;;;;;;;7.56;100.00;98861.81;4995919;28;20107;-82
2021/12/26 03:37:31;;;;;;;0.50;0.50;;;;;;;7.49;100.00;98854.59;5008348;28;20031;-82
2021/12/26 03:39:56;;;;;;;0.40;0.40;;;;;;;7.53;100.00;98867.56;5010320;28;20041;-82
2021/12/26 03:42:22;;;;;;;0.40;0.40;;;;;;;7.51;100.00;98870.44;5012040;28;20104;-83
2021/12/26 03:44:49;;;;;;;0.50;0.50;;;;;;;7.34;100.00;98856.63;4996347;28;20521;-82
2021/12/26 03:47:15;;;;;;;0.40;0.40;;;;;;;7.46;100.00;98870.19;5007528;28;20044;-82
2021/12/26 03:49:42;;;;;;;0.57;0.57;;;;;;;7.42;100.00;98869.78;5025175;28;20036;-82
2021/12/26 03:52:07;;;;;;;1.05;0.68;;;;;;;7.41;100.00;98878.84;4994302;28;20037;-83
2021/12/26 03:54:33;;;;;;;0.50;0.50;;;;;;;7.40;100.00;98865.66;5026950;28;20478;-82
2021/12/26 03:57:00;;;;;;;0.50;0.50;;;;;;;7.38;100.00;98865.03;4992911;28;20039;-82
2021/12/26 03:59:27;;;;;;;0.40;0.40;;;;;;;7.39;100.00;98867.53;5010239;28;20037;-82
2021/12/26 04:01:56;;;;;;;0.50;0.50;;;;;;;7.34;100.00;98859.28;5024840;28;20033;-83
2021/12/26 04:04:22;;;;;;;0.40;0.40;;;;;;;7.41;100.00;98876.19;5042169;28;20045;-83
2021/12/26 04:06:48;;;;;;;0.40;0.40;;;;;;;7.35;100.00;98855.56;4995508;28;20045;-83
2021/12/26 04:09:14;;;;;;;0.47;0.47;;;;;;;7.34;100.00;98861.97;5027740;28;20053;-83
2021/12/26 04:11:43;;;;;;;0.43;0.43;;;;;;;7.27;100.00;98864.59;4993935;28;20033;-82
2021/12/26 04:14:09;;;;;;;0.60;0.60;;;;;;;7.22;100.00;98860.88;5010166;28;20507;-83
2021/12/26 04:16:35;;;;;;;0.50;0.50;;;;;;;7.27;100.00;98875.28;5023992;28;20075;-83
2021/12/26 04:19:01;;;;;;;0.40;0.40;;;;;;;7.31;100.00;98875.72;5008061;28;20071;-83
2021/12/26 04:21:28;;;;;;;0.40;0.40;;;;;;;7.36;100.00;98877.81;5004935;28;20120;-83
2021/12/26 04:23:54;;;;;;;0.57;0.57;;;;;;;7.42;100.00;98869.78;4995410;28;20033;-82
2021/12/26 04:26:20;;;;;;;0.40;0.40;;;;;;;7.36;100.00;98870.59;4996096;28;20040;-83
2021/12/26 04:28:45;;;;;;;0.47;0.47;;;;;;;7.29;100.00;98883.13;5010079;28;20037;-82
2021/12/26 04:31:11;;;;;;;0.50;0.50;;;;;;;7.15;100.00;98884.13;5009622;28;20107;-82
2021/12/26 04:33:37;;;;;;;0.50;0.50;;;;;;;6.94;100.00;98872.50;5026176;28;20033;-83
2021/12/26 04:36:03;;;;;;;0.57;0.57;;;;;;;6.87;100.00;98871.63;5011696;28;20897;-83
2021/12/26 04:38:28;;;;;;;0.40;0.40;;;;;;;6.73;100.00;98883.28;4992299;28;20033;-84
2021/12/26 04:40:54;;;;;;;0.50;0.50;;;;;;;6.65;100.00;98878.09;5006011;28;20543;-83
2021/12/26 04:43:21;;;;;;;0.50;0.50;;;;;;;6.66;100.00;98888.56;4990501;28;20033;-83
2021/12/26 04:45:48;;;;;;;0.50;0.50;;;;;;;6.70;100.00;98886.34;5012224;28;20124;-83
2021/12/26 04:48:14;;;;;;;0.40;0.40;;;;;;;6.64;100.00;98884.44;5007594;28;20041;-84
2021/12/26 04:50:41;;;;;;;0.50;0.50;;;;;;;6.31;100.00;98848.53;4995841;28;20033;-83
2021/12/26 04:53:07;;;;;;;0.40;0.40;;;;;;;6.42;100.00;98878.38;5007469;28;20472;-82
2021/12/26 04:55:33;;;;;;;0.50;0.50;;;;;;;6.28;100.00;98880.13;5013040;28;20040;-82
2021/12/26 04:57:59;;;;;;;0.40;0.40;;;;;;;6.14;100.00;98885.34;5041075;28;20029;-82
2021/12/26 05:00:28;;;;;;;0.52;0.52;;;;;;;6.08;100.00;98891.44;5002004;28;20474;-82
2021/12/26 05:02:55;;;;;;;0.40;0.40;;;;;;;6.00;100.00;98886.25;5021341;28;20029;-82
2021/12/26 05:05:21;;;;;;;0.52;0.52;;;;;;;5.98;100.00;98892.78;5005753;28;20079;-83
2021/12/26 05:07:47;;;;;;;0.40;0.40;;;;;;;6.13;100.00;98893.53;5025036;28;20030;-82
2021/12/26 05:10:15;;;;;;;0.40;0.40;;;;;;;6.30;100.00;98888.75;5023294;28;20091;-82
2021/12/26 05:12:41;;;;;;;0.40;0.40;;;;;;;6.50;100.00;98896.91;4991725;28;20042;-82
2021/12/26 05:15:09;;;;;;;0.50;0.50;;;;;;;6.57;100.00;98890.59;4994821;28;20094;-82
2021/12/26 05:17:34;;;;;;;0.50;0.50;;;;;;;6.69;100.00;98895.38;5011311;28;20037;-83
2021/12/26 05:20:00;;;;;;;0.40;0.40;;;;;;;6.71;100.00;98888.00;5011122;28;20056;-82
2021/12/26 05:22:25;;;;;;;0.40;0.40;;;;;;;6.75;100.00;98889.25;5008375;28;20468;-82
2021/12/26 05:24:51;;;;;;;0.50;0.50;;;;;;;6.77;100.00;98893.38;4998938;28;20115;-82
2021/12/26 05:27:17;;;;;;;0.40;0.40;;;;;;;6.82;100.00;98893.59;5022048;28;20037;-83
2021/12/26 05:29:42;;;;;;;0.50;0.50;;;;;;;6.83;100.00;98889.09;5025780;28;20042;-82
2021/12/26 05:32:08;;;;;;;0.50;0.50;;;;;;;6.86;100.00;98894.03;5009952;28;20037;-82
2021/12/26 05:34:34;;;;;;;0.47;0.47;;;;;;;6.77;100.00;98892.53;5023656;28;20041;-82
2021/12/26 05:36:59;;;;;;;0.40;0.40;;;;;;;6.77;100.00;98906.75;5054591;28;20046;-84
2021/12/26 05:39:25;;;;;;;0.50;0.50;;;;;;;6.80;100.00;98905.50;5010001;28;20388;-83
2021/12/26 05:41:51;;;;;;;0.43;0.43;;;;;;;6.84;100.00;98906.75;5009234;28;20394;-83
2021/12/26 05:44:16;;;;;;;0.45;0.45;;;;;;;6.89;100.00;98907.00;5023484;28;20654;-82
2021/12/26 05:46:42;;;;;;;0.40;0.40;;;;;;;6.87;100.00;98909.03;5025330;28;20403;-83
2021/12/26 05:49:08;;;;;;;0.40;0.40;;;;;;;6.83;100.00;98908.63;5021205;28;20375;-83
2021/12/26 05:51:34;;;;;;;0.40;0.40;;;;;;;6.75;100.00;98898.09;5011286;28;20375;-82
2021/12/26 05:53:59;;;;;;;0.50;0.50;;;;;;;6.73;100.00;98902.81;5004962;28;20127;-82
2021/12/26 05:56:25;;;;;;;0.40;0.40;;;;;;;6.63;100.00;98890.81;5023764;28;20500;-83
2021/12/26 05:58:51;;;;;;;0.40;0.40;;;;;;;6.63;100.00;98906.84;5007829;28;20037;-82
2021/12/26 06:01:16;;;;;;;0.50;0.50;;;;;;;6.67;100.00;98908.09;5027943;28;20463;-82
2021/12/26 06:03:42;;;;;;;0.50;0.50;;;;;;;6.70;100.00;98903.19;5003741;28;20530;-82
2021/12/26 06:06:08;;;;;;;0.50;0.50;;;;;;;6.77;100.00;98903.22;5007353;28;20423;-82
2021/12/26 06:08:33;;;;;;;0.43;0.43;;;;;;;6.69;100.00;98901.53;5025482;28;20061;-83
2021/12/26 06:10:59;;;;;;;0.50;0.50;;;;;;;6.71;100.00;98904.84;5022201;28;20379;-83
2021/12/26 06:13:25;;;;;;;0.40;0.40;;;;;;;6.76;100.00;98915.75;5006514;28;20303;-82
2021/12/26 06:15:50;;;;;;;0.43;0.43;;;;;;;6.69;100.00;98904.19;5008214;28;20128;-82
2021/12/26 06:18:16;;;;;;;0.40;0.40;;;;;;;6.66;100.00;98904.59;5027145;28;20099;-82
2021/12/26 06:20:42;;;;;;;0.50;0.50;;;;;;;6.59;100.00;98909.91;4991743;28;20525;-82
2021/12/26 06:23:07;;;;;;;0.40;0.40;;;;;;;6.58;100.00;98905.56;5012333;28;20082;-82
2021/12/26 06:25:33;;;;;;;0.40;0.40;;;;;;;6.61;100.00;98909.69;5029988;28;20040;-82
2021/12/26 06:27:59;;;;;;;0.40;0.40;;;;;;;6.65;100.00;98908.31;4994088;28;20124;-83
2021/12/26 06:30:24;;;;;;;0.45;0.45;;;;;;;6.62;100.00;98903.34;5014078;28;20360;-82
2021/12/26 06:32:50;;;;;;;0.50;0.50;;;;;;;6.65;100.00;98920.84;5013784;28;20073;-82
2021/12/26 06:35:16;;;;;;;0.47;0.47;;;;;;;6.65;100.00;98910.16;5026456;28;20034;-82
2021/12/26 06:37:41;;;;;;;0.50;0.50;;;;;;;6.64;100.00;98908.50;5029688;28;20378;-82
2021/12/26 06:40:10;;;;;;;0.50;0.50;;;;;;;6.71;100.00;98926.22;5006930;28;20497;-83
2021/12/26 06:42:41;;;;;;;0.45;0.45;;;;;;;6.77;100.00;98921.91;5028387;28;20064;-82
2021/12/26 06:45:09;;;;;;;0.57;0.50;;;;;;;6.78;100.00;98936.94;5026108;28;20499;-83
2021/12/26 06:47:36;;;;;;;0.40;0.40;;;;;;;6.63;100.00;98921.03;4996737;28;20037;-83
2021/12/26 06:50:03;;;;;;;0.50;0.50;;;;;;;6.72;100.00;98940.38;5006982;28;20041;-82
2021/12/26 06:52:29;;;;;;;0.40;0.40;;;;;;;6.59;100.00;98939.28;4993192;28;20391;-82
2021/12/26 06:54:55;;;;;;;0.50;0.50;;;;;;;6.54;100.00;98943.56;5009786;28;20060;-82
2021/12/26 06:57:20;;;;;;;0.43;0.43;;;;;;;6.56;100.00;98939.69;4997729;28;20034;-83
2021/12/26 06:59:46;;;;;;;0.70;0.70;;;;;;;6.56;100.00;98946.84;5011053;28;20029;-82
2021/12/26 07:02:11;;;;;;;0.50;0.50;;;;;;;6.52;100.00;98937.59;5006536;28;20040;-82
2021/12/26 07:04:37;;;;;;;0.55;0.55;;;;;;;6.56;100.00;98950.38;4994753;28;20377;-82
2021/12/26 07:07:03;;;;;;;0.40;0.40;;;;;;;6.49;100.00;98938.81;5018499;28;20038;-81
2021/12/26 07:09:28;;;;;;;0.50;0.50;;;;;;;6.56;100.00;98942.34;5015836;28;20040;-82
2021/12/26 07:11:56;;;;;;;0.45;0.45;;;;;;;6.55;100.00;98948.69;4994767;28;20395;-83
2021/12/26 07:14:22;;;;;;;0.40;0.40;;;;;;;6.59;100.00;98949.97;5027535;28;20087;-82
2021/12/26 07:16:48;;;;;;;0.40;0.40;;;;;;;6.60;100.00;98956.94;5025070;28;20458;-83
2021/12/26 07:19:14;;;;;;;0.50;0.50;;;;;;;6.54;100.00;98947.06;5001292;28;20558;-82
2021/12/26 07:21:40;;;;;;;0.40;0.40;;;;;;;6.43;100.00;98936.91;5003966;28;20052;-83
2021/12/26 07:24:09;;;;;;;0.40;0.40;;;;;;;6.38;100.00;98936.66;5007208;28;20051;-82
2021/12/26 07:26:35;;;;;;;0.50;0.50;;;;;;;6.34;100.00;98938.06;4994946;28;20045;-83
2021/12/26 07:29:00;;;;;;;0.45;0.45;;;;;;;6.28;100.00;98944.19;5009476;28;20495;-82
2021/12/26 07:31:29;;;;;;;0.50;0.50;;;;;;;6.18;100.00;98933.00;5008277;28;20034;-83
2021/12/26 07:34:02;;;;;;;0.50;0.50;;;;;;;6.06;100.00;98938.88;5029731;28;20033;-83
2021/12/26 07:36:34;;;;;;;0.55;0.55;;;;;;;5.93;100.00;98931.56;4996931;28;20045;-83
2021/12/26 07:39:05;;;;;;;0.40;0.40;;;;;;;5.92;100.00;98942.38;4999357;28;20045;-83
2021/12/26 07:41:31;;;;;;;0.40;0.40;;;;;;;5.90;100.00;98941.72;4993315;28;20033;-83
2021/12/26 07:43:57;;;;;;;0.45;0.45;;;;;;;5.96;100.00;98945.53;4995911;28;20083;-83
2021/12/26 07:46:22;;;;;;;0.50;0.50;;;;;;;6.00;100.00;98950.28;4990810;28;20029;-82
2021/12/26 07:48:48;;;;;;;0.40;0.40;;;;;;;6.11;100.00;98946.28;5011129;28;20109;-82
2021/12/26 07:51:14;;;;;;;0.40;0.40;;;;;;;6.18;100.00;98952.50;4998072;28;20033;-83
2021/12/26 07:53:40;;;;;;;0.45;0.45;;;;;;;6.26;100.00;98948.88;5023829;28;20543;-83
2021/12/26 07:56:06;;;;;;;0.50;0.50;;;;;;;6.39;100.00;98955.16;5010913;28;20041;-83
2021/12/26 07:58:31;;;;;;;0.50;0.50;;;;;;;6.46;100.00;98968.56;5026979;28;20493;-83
2021/12/26 08:00:57;;;;;;;0.40;0.40;;;;;;;6.42;100.00;98969.13;4994163;28;20083;-84
2021/12/26 08:03:23;;;;;;;0.40;0.40;;;;;;;6.48;100.00;98969.16;4996122;28;20034;-83
2021/12/26 08:05:49;;;;;;;0.45;0.45;;;;;;;6.53;100.00;98971.28;5009240;28;20029;-83
2021/12/26 08:08:14;;;;;;;0.50;0.50;;;;;;;6.56;100.00;98965.53;5006178;28;20437;-83
2021/12/26 08:10:40;;;;;;;0.40;0.40;;;;;;;6.41;100.00;98946.94;5006637;28;20029;-83
2021/12/26 08:13:05;;;;;;;0.50;0.50;;;;;;;6.63;100.00;98973.63;5024407;28;20041;-83
2021/12/26 08:15:31;;;;;;;0.70;0.70;;;;;;;6.65;100.00;98974.25;4994214;28;20304;-82
2021/12/26 08:17:57;;;;;;;0.50;0.50;;;;;;;6.68;100.00;98972.00;5006524;28;20029;-83
2021/12/26 08:20:23;;;;;;;0.50;0.50;;;;;;;6.74;100.00;98989.09;5026020;28;20108;-83
2021/12/26 08:22:48;;;;;;;0.50;0.50;;;;;;;6.70;100.00;98983.31;5030311;28;20033;-82
2021/12/26 08:25:14;;;;;;;3.50;0.88;;;;;;;6.65;100.00;98979.59;5022049;28;21790;-82
2021/12/26 08:27:40;;;;;;;0.40;0.40;;;;;;;6.63;100.00;98979.78;5009906;28;20029;-82
2021/12/26 08:30:06;;;;;;;0.40;0.40;;;;;;;6.63;100.00;98990.44;5027674;28;20025;-83
2021/12/26 08:32:34;;;;;;;0.50;0.50;;;;;;;6.69;100.00;98992.34;5019503;28;20037;-83
2021/12/26 08:35:01;;;;;;;0.50;0.50;;;;;;;6.74;100.00;98999.78;5005129;28;20458;-82
2021/12/26 08:37:27;;;;;;;0.50;0.50;;;;;;;6.73;100.00;98993.63;5006551;28;20092;-83
2021/12/26 08:39:53;;;;;;;0.50;0.50;;;;;;;6.72;100.00;98994.66;4994205;28;20163;-83
2021/12/26 08:42:19;;;;;;;0.40;0.40;;;;;;;6.68;100.00;98996.03;5018341;28;21361;-82
2021/12/26 08:44:45;;;;;;;0.50;0.50;;;;;;;6.47;100.00;98967.53;4990957;28;20076;-83
2021/12/26 08:47:11;;;;;;;0.40;0.40;;;;;;;6.58;100.00;99004.38;5035533;28;20124;-83
2021/12/26 08:49:37;;;;;;;0.40;0.40;;;;;;;6.70;100.00;99007.38;5022555;28;20026;-82
2021/12/26 08:52:05;;;;;;;0.40;0.40;;;;;;;6.65;100.00;98995.63;4988307;28;20042;-83
2021/12/26 08:54:33;;;;;;;0.40;0.40;;;;;;;6.73;100.00;99012.31;5011186;28;20025;-83
2021/12/26 08:57:00;;;;;;;0.40;0.40;;;;;;;6.74;100.00;99005.13;5023286;28;20495;-82
2021/12/26 08:59:30;;;;;;;0.50;0.50;;;;;;;6.77;100.00;99007.41;5033172;28;20545;-83
2021/12/26 09:02:02;;;;;;;0.50;0.50;;;;;;;6.85;100.00;99004.59;5019140;28;20041;-83
2021/12/26 09:04:30;;;;;;;0.47;0.47;;;;;;;6.77;100.00;99007.41;5013983;28;20072;-83
2021/12/26 09:06:56;;;;;;;0.50;0.50;;;;;;;6.90;100.00;99020.84;5020011;28;20503;-83
2021/12/26 09:09:22;;;;;;;0.47;0.47;;;;;;;6.98;100.00;99031.38;5008924;28;20037;-84
2021/12/26 09:11:48;;;;;;;0.50;0.50;;;;;;;6.99;100.00;99029.56;5019469;28;20030;-83
2021/12/26 09:14:14;;;;;;;0.50;0.50;;;;;;;7.01;100.00;99036.38;4994122;28;20045;-82
2021/12/26 09:16:40;;;;;;;0.50;0.50;;;;;;;6.97;100.00;99026.25;5006701;28;20038;-83
2021/12/26 09:19:06;;;;;;;0.50;0.50;;;;;;;7.05;100.00;99044.81;5011087;28;20038;-83
2021/12/26 09:21:32;;;;;;;0.43;0.43;;;;;;;7.06;100.00;99041.09;5009310;28;20041;-82
2021/12/26 09:23:58;;;;;;;0.50;0.50;;;;;;;7.06;100.00;99049.13;5003018;28;20457;-82
2021/12/26 09:26:23;;;;;;;0.50;0.50;;;;;;;6.92;100.00;99045.53;5006218;28;20033;-82
2021/12/26 09:28:50;;;;;;;0.50;0.50;;;;;;;6.99;100.00;99045.59;5010796;28;20938;-81
2021/12/26 09:31:16;;;;;;;0.50;0.50;;;;;;;7.07;100.00;99044.63;5008467;28;20087;-82
2021/12/26 09:33:42;;;;;;;0.50;0.50;;;;;;;7.08;100.00;99038.25;4993170;28;20486;-83
2021/12/26 09:36:07;;;;;;;5.28;1.38;;;;;;;7.17;100.00;99040.59;5006086;28;20059;-82
2021/12/26 09:38:33;;;;;;;0.50;0.50;;;;;;;7.11;100.00;99037.84;5023949;28;20128;-82
2021/12/26 09:40:59;;;;;;;0.50;0.50;;;;;;;7.14;100.00;99050.81;5021657;28;20105;-82
2021/12/26 09:43:32;;;;;;;0.50;0.50;;;;;;;7.09;100.00;99048.72;5026725;28;20029;-82
2021/12/26 09:45:58;;;;;;;0.47;0.47;;;;;;;7.18;100.00;99054.78;5014863;28;20506;-82
2021/12/26 09:48:24;;;;;;;0.50;0.50;;;;;;;7.22;100.00;99050.66;5024173;28;20076;-82
2021/12/26 09:50:49;;;;;;;0.40;0.40;;;;;;;7.27;100.00;99064.28;5026294;28;20037;-82
2021/12/26 09:53:15;;;;;;;0.50;0.50;;;;;;;7.29;100.00;99061.41;5010715;28;20037;-82
2021/12/26 09:55:41;;;;;;;0.40;0.40;;;;;;;7.24;100.00;99070.03;5024987;28;20033;-83
2021/12/26 09:58:07;;;;;;;0.40;0.40;;;;;;;7.16;100.00;99060.31;5029143;28;20447;-82
2021/12/26 10:00:38;;;;;;;0.50;0.50;;;;;;;7.21;100.00;99073.09;5020469;28;20038;-82
2021/12/26 10:03:27;;;;;;;0.40;0.40;;;;;;;7.19;100.00;99067.09;4997950;28;20115;-82
2021/12/26 10:06:02;;;;;;;0.50;0.50;;;;;;;7.19;100.00;99072.44;5014659;28;20037;-82
2021/12/26 10:08:29;;;;;;;0.45;0.45;;;;;;;7.17;100.00;99077.16;5010272;28;20029;-83
2021/12/26 10:11:12;;;;;;;0.45;0.45;;;;;;;7.11;100.00;99070.75;5027624;28;20060;-82
2021/12/26 10:13:45;;;;;;;0.50;0.50;;;;;;;7.10;100.00;99073.63;5011026;28;20033;-82
2021/12/26 10:16:12;;;;;;;0.50;0.50;;;;;;;7.06;100.00;99078.53;5031732;28;20106;-82
2021/12/26 10:18:41;;;;;;;0.50;0.50;;;;;;;7.08;100.00;99073.00;5011149;28;20117;-82
2021/12/26 10:21:28;;;;;;;0.40;0.40;;;;;;;7.16;100.00;99088.88;5011635;28;20137;-81
2021/12/26 10:24:00;;;;;;;0.43;0.43;;;;;;;7.14;100.00;99078.38;5013284;28;20433;-82
2021/12/26 10:26:29;;;;;;;0.40;0.40;;;;;;;7.09;100.00;99070.13;5025697;28;20029;-83
2021/12/26 10:29:17;;;;;;;0.50;0.50;;;;;;;7.22;100.00;99085.41;5003014;28;20072;-83
2021/12/26 10:31:59;;;;;;;0.40;0.40;;;;;;;7.24;100.00;99081.53;5011044;28;20038;-82
2021/12/26 10:34:34;;;;;;;0.50;0.50;;;;;;;7.24;100.00;99070.84;5022948;28;20052;-83
2021/12/26 10:37:04;;;;;;;0.50;0.50;;;;;;;7.26;100.00;99076.00;5014651;28;20037;-82
2021/12/26 10:39:43;;;;;;;0.40;0.40;;;;;;;7.26;100.00;99082.16;5024822;28;20487;-82
2021/12/26 10:42:16;;;;;;;0.40;0.40;;;;;;;7.36;100.00;99081.84;5006450;28;20045;-81
2021/12/26 10:44:53;;;;;;;0.43;0.43;;;;;;;7.39;100.00;99083.28;5038396;28;20033;-83
2021/12/26 10:47:22;;;;;;;0.70;0.70;;;;;;;7.42;100.00;99081.03;5023427;28;20029;-82
2021/12/26 10:50:06;;;;;;;0.47;0.47;;;;;;;7.47;100.00;99075.94;5021514;28;20034;-82
2021/12/26 10:52:34;;;;;;;0.43;0.43;;;;;;;7.52;100.00;99075.34;4990612;28;20029;-82
2021/12/26 10:55:08;;;;;;;0.50;0.50;;;;;;;7.70;100.00;99081.00;4997511;28;20144;-82
2021/12/26 10:57:38;;;;;;;;;;;;;;;7.95;100.00;99088.50;5030038;28;20409;-83
2021/12/26 11:00:12;;;;;;;0.70;0.70;;;;;;;7.77;100.00;99062.28;4996125;28;19917;-83
2021/12/26 11:02:41;;;;;;;0.50;0.50;;;;;;;8.05;100.00;99101.53;5015298;28;20017;-83
2021/12/26 11:05:22;;;;;;;0.50;0.50;;;;;;;8.01;100.00;99084.22;5012584;28;20036;-83
2021/12/26 11:07:50;;;;;;;0.73;0.73;;;;;;;7.98;100.00;99087.28;5032018;28;20033;-83
2021/12/26 11:10:20;;;;;;;0.88;0.88;;;;;;;7.97;100.00;99086.47;5032104;28;20026;-83
2021/12/26 11:12:48;;;;;;;0.40;0.40;;;;;;;8.23;100.00;99091.09;5032970;28;20022;-83
2021/12/26 11:15:16;;;;;;;0.50;0.50;;;;;;;8.30;100.00;99088.41;5031037;28;20624;-83
2021/12/26 11:17:50;;;;;;;0.52;0.52;;;;;;;8.24;100.00;99087.38;5014184;28;20025;-83
2021/12/26 11:20:25;;;;;;;0.70;0.70;;;;;;;8.17;100.00;99089.19;5013614;28;20471;-83
2021/12/26 11:22:51;;;;;;;0.60;0.60;;;;;;;8.18;100.00;99074.81;5015021;28;20052;-83
2021/12/26 11:25:17;;;;;;;2.50;2.08;;;;;;;8.24;100.00;99073.16;4998561;28;20091;-81
2021/12/26 11:27:43;;;;;;;0.40;0.40;;;;;;;8.20;100.00;99069.22;4990000;28;20049;-81
2021/12/26 11:30:10;;;;;;;0.50;0.50;;;;;;;8.27;100.00;99078.13;4998042;28;20045;-82
2021/12/26 11:32:36;;;;;;;0.50;0.50;;;;;;;8.36;100.00;99088.44;5011848;28;20117;-81
2021/12/26 11:35:03;;;;;;;0.63;0.63;;;;;;;8.37;100.00;99082.06;4991937;28;20030;-81
2021/12/26 11:37:30;;;;;;;0.40;0.40;;;;;;;8.55;100.00;99069.97;5004562;28;20127;-80
2021/12/26 11:39:57;;;;;;;0.40;0.40;;;;;;;8.63;100.00;99068.97;4992780;28;20056;-81